createdAt,value
2023-03-12T00:01:21.878Z,2.2
2023-03-12T00:06:21.988Z,2.1
2023-03-12T00:11:21.867Z,2.0
2023-03-12T00:16:22.039Z,2.0
2023-03-12T00:21:21.891Z,2.0
2023-03-12T00:26:22.011Z,2.1
2023-03-12T00:31:21.927Z,2.2
2023-03-12T00:36:21.954Z,2.1
2023-03-12T00:41:21.902Z,2.1
2023-03-12T00:46:22.067Z,2.1
2023-03-12T00:51:21.865Z,2.1
2023-03-12T00:56:21.970Z,2.1
2023-03-12T01:01:21.883Z,2.1
2023-03-12T01:06:21.959Z,2.1
2023-03-12T01:11:21.866Z,2.1
2023-03-12T01:16:22.031Z,2.2
2023-03-12T01:21:21.888Z,2.2
2023-03-12T01:26:21.956Z,2.2
2023-03-12T01:31:21.965Z,2.2
2023-03-12T01:36:21.965Z,2.2
2023-03-12T01:41:21.871Z,2.3
2023-03-12T01:46:21.956Z,2.3
2023-03-12T01:51:21.908Z,2.3
2023-03-12T01:56:22.045Z,2.3
2023-03-12T02:01:22.022Z,2.3
2023-03-12T02:06:22.044Z,2.4
2023-03-12T02:11:21.898Z,2.5
2023-03-12T02:16:22.055Z,2.4
2023-03-12T02:21:21.942Z,2.5
2023-03-12T02:26:22.024Z,2.5
2023-03-12T02:31:21.977Z,2.5
2023-03-12T02:36:22.026Z,2.5
2023-03-12T02:41:21.959Z,2.6
2023-03-12T02:46:22.192Z,2.6
2023-03-12T02:51:21.989Z,2.7
2023-03-12T02:56:22.097Z,2.8
2023-03-12T03:01:22.020Z,2.8
2023-03-12T03:06:22.113Z,2.9
2023-03-12T03:11:21.980Z,2.9
2023-03-12T03:16:22.074Z,2.9
2023-03-12T03:21:22.004Z,3.0
2023-03-12T03:26:22.094Z,3.1
2023-03-12T03:31:22.206Z,3.1
2023-03-12T03:36:22.143Z,3.2
2023-03-12T03:41:21.968Z,3.2
2023-03-12T03:46:22.116Z,3.2
2023-03-12T03:51:22.010Z,3.3
2023-03-12T03:56:22.077Z,3.3
2023-03-12T04:01:22.016Z,3.4
2023-03-12T04:06:22.081Z,3.5
2023-03-12T04:11:21.990Z,3.5
2023-03-12T04:16:22.231Z,3.5
2023-03-12T04:21:22.009Z,3.5
2023-03-12T04:26:22.033Z,3.5
2023-03-12T04:31:22.035Z,3.6
2023-03-12T04:36:22.032Z,3.7
2023-03-12T04:41:21.975Z,3.7
2023-03-12T04:46:22.074Z,3.7
2023-03-12T04:51:22.006Z,3.8
2023-03-12T04:56:22.033Z,3.9
2023-03-12T05:01:22.019Z,3.9
2023-03-12T05:06:22.102Z,3.9
2023-03-12T05:11:22.027Z,4.0
2023-03-12T05:16:22.230Z,4.1
2023-03-12T05:21:22.083Z,4.1
2023-03-12T05:26:22.175Z,4.2
2023-03-12T05:31:22.132Z,4.2
2023-03-12T05:36:22.155Z,4.3
2023-03-12T05:41:22.086Z,4.3
2023-03-12T05:46:22.189Z,4.4
2023-03-12T05:56:22.177Z,4.5
2023-03-12T06:01:22.078Z,4.7
2023-03-12T06:06:22.172Z,4.9
2023-03-12T06:11:22.066Z,5.0
2023-03-12T06:16:22.245Z,5.0
2023-03-12T06:21:22.097Z,5.2
2023-03-12T06:26:22.147Z,5.3
2023-03-12T06:31:22.136Z,5.2
2023-03-12T06:36:22.150Z,5.2
2023-03-12T06:41:22.106Z,5.3
2023-03-12T06:46:22.396Z,5.3
2023-03-12T06:51:22.101Z,5.3
2023-03-12T06:56:22.170Z,5.3
2023-03-12T07:01:22.095Z,5.3
2023-03-12T07:06:22.152Z,5.4
2023-03-12T07:11:22.093Z,5.4
2023-03-12T07:16:22.202Z,5.4
2023-03-12T07:21:22.088Z,5.5
2023-03-12T07:26:22.169Z,5.5
2023-03-12T07:31:22.123Z,5.5
2023-03-12T07:41:22.185Z,5.8
2023-03-12T07:46:22.226Z,5.8
2023-03-12T07:51:22.096Z,5.7
2023-03-12T07:56:22.403Z,5.8
2023-03-12T08:01:22.136Z,5.9
2023-03-12T08:06:22.162Z,6.0
2023-03-12T08:11:22.095Z,6.1
2023-03-12T08:16:22.404Z,6.2
2023-03-12T08:21:22.146Z,6.2
2023-03-12T08:26:22.206Z,6.2
2023-03-12T08:31:22.180Z,6.5
2023-03-12T08:36:22.652Z,6.7
2023-03-12T08:41:22.135Z,6.8
2023-03-12T08:46:22.389Z,6.8
2023-03-12T08:51:22.197Z,6.7
2023-03-12T08:56:22.327Z,6.8
2023-03-12T09:01:22.197Z,6.9
2023-03-12T09:06:22.331Z,7.3
2023-03-12T09:11:22.220Z,7.2
2023-03-12T09:16:22.448Z,7.1
2023-03-12T09:21:22.235Z,7.2
2023-03-12T09:36:22.404Z,7.1
2023-03-12T09:41:22.275Z,7.2
2023-03-12T09:46:22.361Z,7.4
2023-03-12T09:51:22.209Z,7.5
2023-03-12T09:56:22.210Z,7.7
2023-03-12T10:01:22.245Z,7.7
2023-03-12T10:06:22.389Z,7.8
2023-03-12T10:11:22.227Z,7.8
2023-03-12T10:16:22.395Z,8.3
2023-03-12T10:21:22.243Z,8.2
2023-03-12T10:26:22.308Z,8.2
2023-03-12T10:31:22.326Z,8.5
2023-03-12T10:36:22.299Z,8.5
2023-03-12T10:41:22.233Z,8.9
2023-03-12T10:46:22.317Z,9.2
2023-03-12T10:51:22.230Z,9.7
2023-03-12T10:56:22.311Z,9.9
2023-03-12T11:01:22.270Z,10.4
2023-03-12T11:06:22.361Z,9.8
2023-03-12T11:11:22.289Z,9.7
2023-03-12T11:16:22.487Z,10.2
2023-03-12T11:21:22.263Z,10.4
2023-03-12T11:26:22.352Z,10.6
2023-03-12T11:31:22.403Z,9.9
2023-03-12T11:36:22.356Z,9.7
2023-03-12T11:41:22.295Z,9.3
2023-03-12T11:46:22.367Z,9.1
2023-03-12T11:51:22.286Z,9.1
2023-03-12T11:56:22.340Z,9.3
2023-03-12T12:01:22.334Z,9.2
2023-03-12T12:06:22.407Z,9.2
2023-03-12T12:11:22.325Z,9.6
2023-03-12T12:16:22.406Z,9.7
2023-03-12T12:21:22.319Z,9.8
2023-03-12T12:26:22.452Z,9.8
2023-03-12T12:31:22.402Z,9.8
2023-03-12T12:36:22.488Z,9.9
2023-03-12T12:41:22.366Z,9.7
2023-03-12T12:46:22.546Z,9.9
2023-03-12T12:51:22.385Z,9.9
2023-03-12T12:56:22.450Z,10.2
2023-03-12T13:01:22.434Z,10.5
2023-03-12T13:06:22.464Z,10.5
2023-03-12T13:11:22.375Z,10.9
2023-03-12T13:16:22.496Z,11.1
2023-03-12T13:21:22.392Z,11.2
2023-03-12T13:26:22.428Z,11.2
2023-03-12T13:31:22.422Z,11.0
2023-03-12T13:36:22.469Z,11.3
2023-03-12T13:41:22.375Z,11.3
2023-03-12T13:46:22.493Z,11.1
2023-03-12T13:51:22.367Z,10.9
2023-03-12T13:56:22.430Z,10.7
2023-03-12T14:01:22.392Z,10.8
2023-03-12T14:06:22.443Z,10.9
2023-03-12T14:11:22.372Z,11.0
2023-03-12T14:16:22.547Z,10.9
2023-03-12T14:21:22.367Z,10.9
2023-03-12T14:26:22.441Z,10.9
2023-03-12T14:31:22.408Z,10.9
2023-03-12T14:36:22.529Z,11.0
2023-03-12T14:41:22.369Z,10.9
2023-03-12T14:46:22.562Z,11.0
2023-03-12T14:51:24.201Z,11.0
2023-03-12T14:56:22.532Z,11.1
2023-03-12T15:01:22.531Z,11.1
2023-03-12T15:06:22.537Z,11.2
2023-03-12T15:11:22.452Z,11.2
2023-03-12T15:16:22.624Z,11.2
2023-03-12T15:21:22.434Z,11.2
2023-03-12T15:26:22.564Z,11.1
2023-03-12T15:31:22.575Z,11.0
2023-03-12T15:36:22.611Z,11.0
2023-03-12T15:41:22.433Z,11.0
2023-03-12T15:46:22.715Z,10.9
2023-03-12T15:51:22.441Z,11.0
2023-03-12T15:56:22.529Z,11.0
2023-03-12T16:01:22.579Z,11.0
2023-03-12T16:06:22.548Z,11.0
2023-03-12T16:11:22.484Z,10.9
2023-03-12T16:16:22.615Z,10.9
2023-03-12T16:21:22.455Z,10.9
2023-03-12T16:26:22.586Z,10.9
2023-03-12T16:31:22.532Z,10.9
2023-03-12T16:36:22.569Z,10.9
2023-03-12T16:41:22.466Z,10.9
2023-03-12T16:46:22.672Z,10.9
2023-03-12T16:51:22.472Z,10.7
2023-03-12T16:56:22.529Z,10.7
2023-03-12T17:01:22.539Z,10.7
2023-03-12T17:06:22.523Z,10.6
2023-03-12T17:11:22.468Z,10.5
2023-03-12T17:16:22.600Z,10.5
2023-03-12T17:21:22.457Z,10.4
2023-03-12T17:26:22.570Z,10.4
2023-03-12T17:31:22.481Z,10.4
2023-03-12T17:36:22.521Z,10.3
2023-03-12T17:41:26.882Z,10.3
2023-03-12T17:46:22.625Z,10.2
2023-03-12T17:51:22.454Z,10.2
2023-03-12T17:56:22.554Z,10.2
2023-03-12T18:01:22.469Z,10.0
2023-03-12T18:06:22.572Z,9.9
2023-03-12T18:11:22.506Z,9.9
2023-03-12T18:16:22.666Z,9.9
2023-03-12T18:21:22.505Z,9.9
2023-03-12T18:26:22.647Z,9.8
2023-03-12T18:31:22.624Z,9.9
2023-03-12T18:36:22.603Z,9.8
2023-03-12T18:41:22.538Z,9.9
2023-03-12T18:46:22.732Z,9.9
2023-03-12T18:51:22.565Z,9.9
2023-03-12T18:56:22.678Z,9.8
2023-03-12T19:01:22.662Z,9.8
2023-03-12T19:06:22.758Z,9.8
2023-03-12T19:11:22.622Z,9.7
2023-03-12T19:16:22.728Z,9.7
2023-03-12T19:21:22.579Z,9.7
2023-03-12T19:26:22.675Z,9.7
2023-03-12T19:31:22.645Z,9.7
2023-03-12T19:36:22.642Z,9.6
2023-03-12T19:41:22.593Z,9.6
2023-03-12T19:46:22.745Z,9.5
2023-03-12T19:51:22.618Z,9.6
2023-03-12T19:56:22.763Z,9.6
2023-03-12T20:01:22.640Z,9.6
2023-03-12T20:06:22.717Z,9.5
2023-03-12T20:11:22.602Z,9.5
2023-03-12T20:16:22.769Z,9.4
2023-03-12T20:21:22.612Z,9.4
2023-03-12T20:26:22.686Z,9.4
2023-03-12T20:31:22.639Z,9.4
2023-03-12T20:36:22.654Z,9.3
2023-03-12T20:41:22.594Z,9.4
2023-03-12T20:46:22.829Z,9.3
2023-03-12T20:51:22.605Z,9.3
2023-03-12T20:56:22.693Z,9.2
2023-03-12T21:01:22.660Z,9.2
2023-03-12T21:06:22.678Z,9.2
2023-03-12T21:11:22.643Z,9.2
2023-03-12T21:16:22.780Z,9.2
2023-03-12T21:21:22.628Z,9.2
2023-03-12T21:26:22.737Z,9.2
2023-03-12T21:31:22.692Z,9.2
2023-03-12T21:36:22.702Z,8.9
2023-03-12T21:41:22.670Z,9.0
2023-03-12T21:46:22.846Z,9.0
2023-03-12T21:51:22.669Z,9.0
2023-03-12T21:56:22.753Z,9.0
2023-03-12T22:01:22.717Z,9.0
2023-03-12T22:06:22.763Z,9.0
2023-03-12T22:11:22.664Z,9.0
2023-03-12T22:16:22.852Z,9.0
2023-03-12T22:21:22.712Z,9.0
2023-03-12T22:26:22.854Z,9.0
2023-03-12T22:31:22.800Z,9.0
2023-03-12T22:36:22.881Z,9.0
2023-03-12T22:41:22.721Z,9.0
2023-03-12T22:46:22.912Z,9.0
2023-03-12T22:51:22.744Z,9.0
2023-03-12T22:56:22.841Z,9.1
2023-03-12T23:01:22.811Z,9.0
2023-03-12T23:06:22.845Z,9.0
2023-03-12T23:11:22.734Z,9.1
2023-03-12T23:16:22.874Z,9.0
2023-03-12T23:21:22.747Z,9.1
2023-03-12T23:26:22.874Z,9.0
2023-03-12T23:31:22.831Z,9.0
2023-03-12T23:36:22.861Z,9.1
2023-03-12T23:46:22.870Z,9.1
2023-03-12T23:51:22.749Z,9.2
2023-03-12T23:56:22.859Z,9.2
